MALE AGE GROUP RESULTS
2015 Vulcan Run 10K
Birmingham, AL 11/07/2015 8:00 am
Directed by: Birmingham Track Club Timed by Set Up Events

---------------------------------------------------------------------------
TOP 6 OVERALL MALES
---------------------------------------------------------------------------

Place Bib NAME Age Sex CITY/STATE TeamName GunTime GunPace TagTime TagPace
1. 13 KANE GRIMSTER 23 M AUBURN AL 29:41 4:48 29:41 4:48
2. 1156 JULIUS KOSKEI 33 M HEBRON KY 30:01 4:51 30:01 4:51
3. 1150 PATRICK CHEPTOEK 29 M MURFREESBORO TN 30:38 4:57 30:38 4:57
4. 14 CORY LESLIE 26 M GREENVILLE SC 30:44 4:58 30:44 4:58
5. 1044 KENNEDY KEMEI 37 M HEBRON KY 31:27 5:05 31:27 5:05
6. 18 WILKERSON GIVEN 24 M GREENVILLE SC 31:35 5:06 31:35 5:06
---------------------------------------------------------------------------
TOP 3 MASTERS MALES
---------------------------------------------------------------------------

Place Bib NAME Age Sex CITY/STATE TeamName GunTime GunPace TagTime TagPace
1. 744 KEN STOLTZFUS 43 M HOOVER AL 37:30 6:03 37:30 6:03
2. 746 SCOTT STRAND 47 M BIRMINGHAM AL THE TRAK SHAK 1 37:42 6:05 37:42 6:05
3. 29 JEFF MARTINEZ 41 M VESTAVIA HILLS AL THE TRAK SHAK 1 38:23 6:12 38:23 6:12
---------------------------------------------------------------------------
TOP 1 GRANDMASTERS MALES
---------------------------------------------------------------------------

Place Bib NAME Age Sex CITY/STATE TeamName GunTime GunPace TagTime TagPace
1. 27 JEFF CLARK 50 M MCCALLA AL 38:33 6:14 38:33 6:14
---------------------------------------------------------------------------
TOP 1 SENIOR GRANDMASTERS MALES
---------------------------------------------------------------------------

Place Bib NAME Age Sex CITY/STATE TeamName GunTime GunPace TagTime TagPace
1. 165 CRAIG CECIL 65 M BIRMINGHAM AL 43:23 7:00 43:15 6:59
---------------------------------------------------------------------------
MALE AGE GROUP: 1 - 14
---------------------------------------------------------------------------

Place Bib NAME Age Sex CITY/STATE TeamName GunTime GunPace TagTime TagPace
1. 1093 JOHN ANDRESS 12 M BIRMINGHAM AL 45:53 7:24 45:40 7:22
2. 67 NICK AYERS 14 M BIRMINGHAM AL 46:16 7:28 46:02 7:26
3. 91 JACK BELL 14 M BIRMINGHAM AL 47:02 7:36 47:02 7:36
4. 887 LEWIS FISCHER 13 M BIRMINGHAM AL 47:40 7:42 47:40 7:42
5. 996 TATE RECORD 13 M BIRMINGHAM AL 48:15 7:47 48:15 7:47
6. 268 WILL EARNHARDT 13 M BIRMINGHAM AL 50:00 8:04 49:34 8:00
7. 231 AVERY CRUMP 13 M BIRMINGHAM AL 50:56 8:13 49:51 8:03
8. 1012 JOSH WOLFE 13 M BIRMINGHAM AL 51:04 8:15 50:53 8:13
9. 627 WALKER PHILLIPS 13 M BIRMINGHAM AL 55:10 8:54 54:44 8:50
10. 888 KEY FOSTER 14 M BIRMINGHAM AL 56:08 9:04 56:08 9:04
11. 753 DANNY TACKETT 10 M BIRMINGHAM AL 57:37 9:18 56:48 9:10
12. 703 FINN SHERER 6 M ONEONTA AL VULCAN'S BUTTOCKS 57:58 9:21 57:14 9:14
13. 1153 AIDAN VROCHER 11 M TRUSSVILLE AL 58:52 9:30 58:14 9:24
14. 752 STEVEN TACKETT 11 M BIRMINGHAM AL 59:27 9:36 58:38 9:28
15. 573 JACK MORROW 14 M BIRMINGHAM AL 1:01:50 9:59 1:01:11 9:53
16. 574 SAM MORROW 14 M BIRMINGHAM AL 1:06:17 10:42 1:05:39 10:36
17. 922 GRISSOM PIERCE 13 M BIRMINGHAM AL 1:12:30 11:42 1:11:29 11:32
---------------------------------------------------------------------------
MALE AGE GROUP: 15 - 19
---------------------------------------------------------------------------

Place Bib NAME Age Sex CITY/STATE TeamName GunTime GunPace TagTime TagPace
1. 1014 THOMAS WOLFE 15 M BIRMINGHAM AL 43:25 7:01 43:25 7:01
2. 201 JOSH COFIELD 16 M ALABASTER AL 43:31 7:01 43:31 7:01
3. 119 JOSH BOYD 15 M ASHVILLE AL 43:46 7:04 43:39 7:03
4. 945 MURPHY WRIGHT 15 M HOMEWOOD AL 44:07 7:07 43:36 7:02
5. 960 BARRY CONAWAY 17 M ODENVILLE AL 59:48 9:39 59:42 9:38
6. 1130 TERRY JR EDWARDS 17 M ARGO AL 1:01:39 9:57 1:01:32 9:56
7. 841 JACK WILBANKS 16 M SYLACAUGA AL 1:05:11 10:31 1:04:19 10:23
---------------------------------------------------------------------------
MALE AGE GROUP: 20 - 24
---------------------------------------------------------------------------

Place Bib NAME Age Sex CITY/STATE TeamName GunTime GunPace TagTime TagPace
1. 16 SAMUEL MUELLER 23 M BIRMINGHAM AL 32:56 5:19 32:56 5:19
2. 1149 DAVID MOKONE 24 M BOWLING GREEN KY 34:14 5:32 34:14 5:32
3. 898 GATLIN HOLLAND 20 M GARDENDALE AL CADENCE RUN COACHING BLUE 36:39 5:55 36:39 5:55
4. 434 CORY JONES 24 M BIRMINGHAM AL 36:43 5:56 36:43 5:56
5. 625 BARRY PHILLIPS 20 M NASHVILLE TN 38:39 6:15 38:39 6:15
6. 1170 ZACHARY ONDARA 24 M BIRMINGHAM AL 39:41 6:24 39:41 6:24
7. 934 TAYLOR STINSON 24 M BIRMINGHAM AL 40:36 6:33 40:36 6:33
8. 688 MICHAEL SCHOR 21 M BIRMINGHAM AL 41:42 6:44 41:35 6:43
9. 388 ZACHARY HOLCOMB 21 M BIRMINGHAM AL 41:57 6:46 41:51 6:45
10. 243 PATRICK DAVIS 22 M BIRMINGHAM AL 42:04 6:48 42:04 6:48
11. 415 ALEXANDER JAFFERY 20 M TUSCALOOSA AL 42:54 6:56 42:54 6:56
12. 811 JOSHUA WASHINGTON 20 M MERIDIANVILLE AL 43:19 7:00 43:03 6:57
13. 1095 WALTER MCCORD 24 M BIRMINGHAM AL 43:32 7:02 43:12 6:58
14. 1017 TOMMY YARBROUGH 23 M BIRMINGHAM AL 44:15 7:09 44:08 7:08
15. 689 WILL SCOGIN 24 M BIRMINGHAM AL MUGGLE HUSTLE 45:11 7:18 44:54 7:15
16. 161 CHAD CARROLL 24 M MOODY AL 51:35 8:20 51:26 8:18
17. 1050 DAVID MANUSH 24 M BIRMINGHAM AL 53:40 8:40 53:28 8:38
18. 987 MARSHALL MOORE 24 M ATLANTA GA 55:19 8:56 54:51 8:51
19. 188 SAM CLEMONS 22 M ALABASTER AL 56:11 9:04 55:56 9:02
20. 1113 JARED LEADER 24 M VESTAVIA HILLS AL 1:00:26 9:45 1:00:06 9:42
21. 142 BRETT BURBANK 21 M MAYLENE AL 1:01:02 9:51 1:00:35 9:47
22. 721 JORDAN SMITH 24 M BIRMINGHAM AL 1:04:25 10:24 1:04:25 10:24
23. 1041 LOGAN HOLMES 24 M BIRMINGHAM AL 1:10:55 11:27 1:10:21 11:21
24. 78 HUNTER BALLARD 24 M 1:12:29 11:42 1:12:29 11:42
25. 100 WILL BISHOP 22 M HUNTSVILLE AL 1:22:54 13:23 1:22:54 13:23
---------------------------------------------------------------------------
MALE AGE GROUP: 25 - 29
---------------------------------------------------------------------------

Place Bib NAME Age Sex CITY/STATE TeamName GunTime GunPace TagTime TagPace
1. 11 SEAN BROWN 27 M HOOVER AL 32:33 5:15 32:33 5:15
2. 12 AUSTIN DUCKWORTH 26 M AUSTIN TX CAHABA DISTANCE PROJECT 32:42 5:17 32:42 5:17
3. 33 MARK PEPIN 27 M HOMEWOOD AL 36:05 5:50 36:05 5:50
4. 34 MICHAEL NIEZGODA 26 M BIRMINGHAM AL CAHABA DISTANCE PROJECT 36:20 5:52 36:20 5:52
5. 20 MATTHEW HAMMERSMITH 28 M GREENVILLE SC 36:21 5:52 36:21 5:52
6. 31 WILL RODGERS 27 M PELHAM AL RUNNINGLANE 37:02 5:59 37:02 5:59
7. 600 BRAD OLZINSKI 28 M PELHAM AL 38:09 6:10 38:09 6:10
8. 1033 JOSH DONALDSON 25 M BIRMINGHAM AL 38:38 6:14 38:32 6:13
9. 151 BRANDON BYRD 29 M BIRMINGHAM AL 39:23 6:22 39:17 6:21
10. 700 PETER SHEAROUSE 28 M BIRMINGHAM AL 42:55 6:56 42:49 6:55
11. 135 CAMERON BROWN 26 M BIRMINGHAM AL 42:58 6:56 42:52 6:55
12. 1146 KEVIN STOLTZ 28 M BIRMINGHAM AL 43:01 6:57 42:47 6:54
13. 412 JOSEPH JACKSON 25 M VESTAVIA AL MUGGLE HUSTLE 43:18 6:59 43:01 6:57
14. 196 ADDISON CLOWERS 27 M BIRMINGHAM AL 43:52 7:05 43:43 7:03
15. 1072 NATE WILLIAMS 28 M BIRMINGHAM AL 44:29 7:11 44:10 7:08
16. 115 RYAN BOWERS 29 M HUNTSVILLE AL 45:40 7:22 45:40 7:22
17. 467 TYLER LAHTI 25 M BIRMINGHAM AL 46:11 7:27 45:34 7:21
18. 338 BRENDAN GRIFFIN 26 M BIRMINGHAM AL 46:16 7:28 46:03 7:26
19. 1136 JAKE KENNAMER 27 M VESTAVIA HILLS AL 46:20 7:29 46:01 7:26
20. 466 JOSEPH LAHR 28 M BIRMINGHAM AL 46:30 7:30 46:20 7:29
21. 398 ARMIN HORNIKEL 25 M NORTHPORT AL MUGGLE HUSTLE 47:09 7:37 46:52 7:34
22. 620 CHARLIE PETERS 29 M BIRMINGHAM AL 48:17 7:48 47:47 7:43
23. 663 FLETCHER ROBERTS 25 M BIRMINGHAM AL 48:22 7:49 48:01 7:45
24. 286 JONATHAN FIELD 28 M ATLANTA GA 48:51 7:53 47:57 7:44
25. 44 CARLOS AGEA 28 M BIRMINGHAM AL 49:09 7:56 49:01 7:55
26. 578 WIL MULLINS 27 M GADSDEN AL 50:38 8:10 50:26 8:09
27. 705 DANIEL SILBERGER 28 M HOMEWOOD AL 50:46 8:12 50:36 8:10
28. 855 STEPHEN WITHEE 29 M AUBURN AL 51:41 8:21 51:04 8:15
29. 204 TIM COLEMAN 27 M TUSCALOOSA AL 51:52 8:22 51:39 8:20
30. 727 STEVEN SPARKS 29 M STEELE AL 51:52 8:22 51:39 8:20
31. 918 OSCAR MUNOZ 29 M BIRMINGHAM AL 52:06 8:25 51:03 8:15
32. 1073 SCOTT WINFREE 28 M HOMEWOOD AL 52:09 8:25 51:43 8:21
33. 575 BEN MOSELEY 29 M CENTER POINT AL 53:53 8:42 52:49 8:32
34. 1063 STEPHEN RUMBLE 28 M MARIETTA GA 53:54 8:42 53:30 8:38
35. 679 TYLER ROWE 25 M MOUNT OLIVE AL 54:35 8:49 54:13 8:45
36. 876 JONATHAN BROWN 26 M GOOSE CREEK SC 55:07 8:54 54:20 8:46
37. 999 EDINSON RODRIGUEZ 28 M BIRMINGHAM AL 55:11 8:54 54:09 8:44
38. 741 ANDREW STEWART 27 M HOMEWOOD AL 57:25 9:16 56:37 9:08
39. 261 NEIL DOUGHERTY 27 M MOODY AL 59:53 9:40 58:55 9:31
40. 957 LEAH CHAPMAN 28 M VESTAVIA AL 59:58 9:41 59:18 9:34
41. 1058 JASON PENG 27 M BIRMINGHAMMINGHAM AL 1:00:06 9:42 59:48 9:39
42. 321 JOSH GLIDEWELL 29 M TRUSSVILLE AL 1:06:46 10:47 1:05:38 10:36
43. 62 FRANK ANGSTADT 27 M HOOVER AL 1:07:28 10:53 1:06:39 10:45
44. 668 WILLIAM ROHRER 29 M NORTHPORT AL 1:07:49 10:57 1:06:53 10:48
45. 619 DUSTIN PENDEL 28 M HOMEWOOD AL 1:08:20 11:02 1:07:37 10:55
46. 1031 BROOKS COWING 27 M ATLANTA GA 1:08:58 11:08 1:07:59 10:58
47. 789 GRANT VENABLE 26 M HOOVER AL 1:11:54 11:36 1:11:16 11:30
48. 791 BEN VINES 26 M UNITED STATES AL 1:18:45 12:42 1:18:15 12:38
---------------------------------------------------------------------------
MALE AGE GROUP: 30 - 34
---------------------------------------------------------------------------

Place Bib NAME Age Sex CITY/STATE TeamName GunTime GunPace TagTime TagPace
1. 17 JAY STEPHENSON 34 M ROME GA 33:06 5:21 33:06 5:21
2. 19 SCOTT FUQUA 32 M IRONDALE AL CAHABA DISTANCE PROJECT 34:14 5:32 34:14 5:32
3. 32 MICHAEL BROWN 31 M BIRMINGHAM AL RUNNINGLANE 36:16 5:51 36:16 5:51
4. 197 GOLDEN COACHMAN 31 M BIRMINGHAM AL 36:21 5:52 36:21 5:52
5. 1148 CHRIS MAHAFFEY 33 M ODENVILLE AL 37:00 5:58 37:00 5:58
6. 511 BRANDON MADER 31 M HUNTSVILLE AL RUNNINGLANE 37:07 6:00 37:07 6:00
7. 86 BEAU BEARD 31 M BIRMINGHAM AL 37:37 6:04 37:30 6:03
8. 559 NATHAN MIYASAKI 33 M BIRMINGHAM AL 39:14 6:20 39:08 6:19
9. 639 LARS PORTER 34 M BIRMINGHAM AL THE TRAK SHAK 2 39:37 6:24 39:37 6:24
10. 565 PHILLIP MOORE 30 M BIRMINGHAM AL THE TRAK SHAK 2 39:43 6:25 39:43 6:25
11. 590 THE MIGHTY NERDNOF 30 M BIRMINGHAM AL 41:01 6:37 40:54 6:36
12. 654 JAMES REDIKER 33 M BIRMINGHAM AL 41:25 6:41 41:18 6:40
13. 519 ADAM MARTZ 32 M GARDENDALE AL 43:13 6:59 43:01 6:57
14. 1052 CURT MARTIN 34 M BIRMINGHAM AL 44:25 7:10 43:56 7:06
15. 669 BILLY ROSE 34 M HOOVER AL CADENCE RUN COACHING BLUE 44:50 7:14 44:43 7:13
16. 835 HAL WHITSITT 32 M VESTAVIA HILLS AL 45:08 7:17 45:00 7:16
17. 1007 BART SWECKER 34 M BIRMINGHAM AL 45:10 7:18 45:03 7:16
18. 931 MATT SEARSON 34 M BIRMINGHAM AL 45:37 7:22 45:17 7:19
19. 345 PHILIP HAKE 34 M HOMEWOOD AL 45:43 7:23 45:34 7:21
20. 829 PETER WEST 34 M BIRMINGHAM AL 46:01 7:26 45:52 7:24
21. 581 JASON MURRAY 34 M HOOVER AL 46:38 7:32 46:25 7:30
22. 1075 MATTHEW WOLFE 32 M BIRMINGHAM AL 47:20 7:38 47:00 7:35
23. 893 HIBOOMBE HAAMANKULI 32 M BIRMINGHAM AL 47:51 7:43 47:31 7:40
24. 548 MATTHEW MICHALKE 32 M ODENVILLE AL 49:11 7:56 48:39 7:51
25. 951 NICHOLAS BRADEN 32 M PELHAM AL 50:16 8:07 49:44 8:02
26. 1118 DAVID JONES 31 M MT. OLIVE AL 50:50 8:12 50:39 8:11
27. 401 PHILIP HOUSLER 30 M BIRMINGHAM AL 50:53 8:13 50:37 8:10
28. 450 BOBBY KEY 32 M BIRMINGHAM AL 51:30 8:19 51:09 8:15
29. 213 MICHAEL CONNORS 31 M TRUSSVILLE AL 51:36 8:20 51:21 8:17
30. 299 RYAN FRIERY 33 M VESTAVIA HILLS AL 53:30 8:38 52:58 8:33
31. 976 CHRISTOPHER HUGHES 34 M GARDENDALE AL 54:41 8:50 54:23 8:47
32. 589 NICK NELSON 31 M BIRMINGHAM AL 55:01 8:53 54:21 8:46
33. 891 REESE GOODE 33 M BIRMINGHAM AL 55:22 8:56 54:30 8:48
34. 1076 CHRISTOPHER BALCERZAK 32 M HOOVER AL 55:24 8:57 55:24 8:57
35. 1133 PATRICK BRANNON 34 M BIRMINGHAM AL 55:27 8:57 55:21 8:56
36. 649 STEPHEN PUDNER 34 M HOMEWOOD AL 55:49 9:01 55:15 8:55
37. 1026 ROBERT CASEY 33 M ALABASTER AL 56:00 9:02 55:02 8:53
38. 241 WILL DAVIS 34 M BIRMINGHAM AL 56:07 9:04 55:16 8:55
39. 357 ROBERT HARRIS 33 M LEEDS AL 56:33 9:08 55:25 8:57
40. 977 DUSTY JONES 31 M MCCALLA AL 56:40 9:09 56:03 9:03
41. 773 WILLIAM TOERPE 30 M BIRMINGHAM AL 57:04 9:13 56:31 9:07
42. 510 ANDREW MACE 33 M HUNTSVILLE AL 57:36 9:18 57:01 9:12
43. 291 JJ FOSTER 32 M TRUSSVILLE AL 59:15 9:34 58:58 9:31
44. 454 JUSTIN KING 33 M VESTAVIA AL 59:37 9:37 58:29 9:26
45. 539 MATT MCKENZIE 32 M BIRMINGHAM AL COUNSELORS ON THE RUN 59:56 9:40 59:29 9:36
46. 1172 JAMES RAMSEN 34 M TRUSSVILLE AL 59:58 9:41 59:14 9:34
47. 642 JOHN PRESTRIDGE 32 M ALABASTER AL 1:00:02 9:41 59:33 9:37
48. 1110 JOHN SCOTT 31 M CHELSEA AL 1:00:51 9:49 1:00:19 9:44
49. 1160 JACOB HUFFSTUTLER 30 M HELENA AL 1:01:00 9:51 1:00:21 9:44
50. 969 CHIP FERRELL 31 M BIRMINGHAM AL 1:01:28 9:55 1:00:58 9:50
51. 769 BRANDON THURBER 34 M IRONDALE AL 1:01:47 9:58 1:00:56 9:50
52. 124 HUNTER BRIDWELL 32 M BESSEMER AL 1:03:57 10:19 1:03:46 10:18
53. 81 MATTHEW BARNES 32 M BIRMINGHAM AL 1:04:09 10:21 1:03:37 10:16
54. 133 GRAHAM BROWN 30 M VESTAVIA HILLS AL 1:04:53 10:28 1:03:54 10:19
55. 1036 GEORGE GASKIN 30 M HOMEWOOD AL 1:05:07 10:31 1:04:11 10:22
56. 1140 CLAYTON TURNER 33 M ADAMSVILLE AL 1:05:14 10:32 1:04:07 10:21
57. 585 MATT NEIGHBORS 30 M TUSCALOOSA AL 1:05:45 10:37 1:05:24 10:33
58. 1066 KEVIN TAYLOR 30 M CALERA AL 1:05:56 10:38 1:05:33 10:35
59. 474 JOSEPH LAWHORN 33 M HOOVER AL 1:06:35 10:45 1:06:13 10:41
60. 954 SETH CANNON 32 M HOOVER AL 1:06:53 10:48 1:06:12 10:41
61. 312 PHILIP GIBSON 31 M IRONDALE AL 1:09:37 11:14 1:08:42 11:05
62. 1138 JONATHAN MCCONNELL 33 M HOMEWOOD AL 1:10:17 11:21 1:09:11 11:10
63. 541 JOSH MCLAUGHLIN 30 M TRUSSVILLE AL 1:11:34 11:33 1:10:59 11:27
64. 1003 JUSTIN SMITH 33 M BIRMINGHAM AL 1:15:30 12:11 1:14:58 12:06
65. 535 RICKY MCDOUGAL 30 M HUNTSVILLE AL 1:15:52 12:15 1:14:48 12:04
66. 980 JOSEPH KULOVITZ 31 M BIRMINGHAM AL 1:16:51 12:24 1:16:11 12:18
67. 952 JOSEPH BRAKHAGE 34 M STERRETT AL 1:20:36 13:00 1:19:59 12:54
68. 109 LEWIS BOLTZ 34 M HELENA AL 1:24:23 13:37 1:23:23 13:27
---------------------------------------------------------------------------
MALE AGE GROUP: 35 - 39
---------------------------------------------------------------------------

Place Bib NAME Age Sex CITY/STATE TeamName GunTime GunPace TagTime TagPace
1. 325 JOHN MARK GOODMAN 35 M BIRMINGHAM AL CAHABA DISTANCE PROJECT 36:40 5:55 36:40 5:55
2. 514 MICHAEL MARQUARDT 35 M CALERA AL THE TRAK SHAK 1 37:17 6:01 37:17 6:01
3. 849 TIMOTHY WILLIAMS 38 M BIRMINGHAM AL 39:06 6:19 39:00 6:18
4. 221 DAMON COX 37 M HOMEWOOD AL 39:16 6:20 38:37 6:14
5. 827 ADAM WENDE 37 M VESTAVIA HILLS AL 39:28 6:22 39:28 6:22
6. 606 CHARLIE PARKS 35 M BIRMINGHAM AL 40:05 6:28 39:59 6:27
7. 936 ROBERT THOMPSON 37 M BIRMINGHAM AL 40:27 6:32 40:20 6:31
8. 1038 JON GRAHAM 39 M BIRMINGHAM AL 41:02 6:37 40:54 6:36
9. 381 QUINN HILL 38 M LEEDS AL 42:00 6:47 41:53 6:46
10. 685 SCOTT SANDLIN 36 M HUNTSVILLE AL 42:29 6:52 42:21 6:50
11. 771 SHAUN TILLERY 35 M LEEDS AL 42:35 6:52 42:28 6:51
12. 206 NATHAN COLLINS 39 M BIRMINGHAM AL 42:41 6:54 42:28 6:51
13. 757 ERIC THOMAS 38 M ADAMSVILLE AL 42:47 6:54 42:32 6:52
14. 1020 EVAN BAGGETT 35 M BIRMINGHAM AL 42:49 6:55 42:38 6:53
15. 991 TIM PEMBERTON 38 M ODENVILLE AL 43:13 6:59 43:06 6:58
16. 267 DANIEL DYE 38 M BIRMINGHAM AL 43:58 7:06 43:31 7:02
17. 455 DANNER KLINE 37 M BIRMINGHAM AL 44:29 7:11 44:22 7:10
18. 884 JOSEPH DEASE 39 M VESTAVIA HILLS AL 44:35 7:12 44:35 7:12
19. 104 BRANDON BLACK 36 M BIRMINGHAM AL 44:41 7:13 44:35 7:12
20. 929 NATHAN SATURDAY 37 M BIRMINGHAM AL 45:18 7:19 45:18 7:19
21. 1088 WILLIAM ELLIS 35 M MOUNTAIN BROOK AL 45:48 7:24 45:37 7:22
22. 894 MATTHEW HALL 36 M BIRMINGHAM AL 45:58 7:25 45:49 7:24
23. 1079 DAVID GORDON 39 M BIRMINGHAM AL 46:24 7:30 46:18 7:28
24. 422 CORY JOHNSON 37 M HOMEWOOD AL 47:04 7:36 46:58 7:35
25. 895 JOHN HAMITER 36 M VESTAVIA AL 47:05 7:36 46:55 7:34
26. 864 SOON YOON 38 M HOOVER AL 47:06 7:36 46:44 7:33
27. 564 RYAN MOORE 35 M BIRMINGHAM AL 47:24 7:39 47:17 7:38
28. 1158 MATTHEW MCWILLIAMS 36 M HOOVER AL 48:59 7:54 48:52 7:53
29. 1034 PATRICK FLYNN 39 M BIRMINGHAM AL 49:03 7:55 48:43 7:52
30. 941 JIM WILDER III 38 M VESTAVIA HILLS AL 49:22 7:58 48:51 7:53
31. 836 J. WHITSON 38 M BIRMINGHAM AL 49:56 8:04 48:56 7:54
32. 430 JASON JONES 38 M HOOVER AL 50:36 8:10 50:17 8:07
33. 116 BRANDON BOYD 35 M BIRMINGHAM AL 51:25 8:18 51:04 8:15
34. 958 ROY CLARKSON 39 M TRUSSVILLE AL 51:59 8:23 51:50 8:22
35. 1142 MICHAEL POTTER 37 M JERSEY CITY NJ 52:09 8:25 52:09 8:25
36. 942 JAMES WILLIAMS 35 M BIRMINGHAM AL 52:23 8:27 52:09 8:25
37. 483 CHAD LEE 37 M BIRMINGHAM AL 52:25 8:28 51:21 8:17
38. 173 PAUL CHEEK 36 M BIRMINGHAM AL 53:03 8:34 52:49 8:32
39. 880 NITIN CHHABRA 37 M BIRMINGHAM AL 53:41 8:40 53:19 8:36
40. 897 DAVID HOGUE 38 M BIRMINGHAM AL 54:18 8:46 54:01 8:43
41. 883 DOUGLAS DAVIS II 36 M TRUSSVILLE AL 54:25 8:47 53:19 8:36
42. 571 MATT MORRIS 38 M HELENA AL 54:41 8:50 54:33 8:48
43. 1163 KEVIN RUGGIERO 35 M BIRMINGHAM AL 54:49 8:51 54:49 8:51
44. 776 NICK TOTH 35 M BIRMINGHAM AL 55:41 8:59 54:57 8:52
45. 1054 MATTHEW MITCHELL 36 M BIRMINGHAM AL 55:49 9:01 55:24 8:57
46. 1068 FREDDY TSE 38 M CHELSEA AL 56:01 9:02 55:03 8:53
47. 1103 ANIL CHADHA 37 M HOMEWOOD AL 56:06 9:03 55:43 9:00
48. 909 TREY MCCLURE 38 M BIRMINGHAM AL 57:14 9:14 57:14 9:14
49. 997 COLIN RICHARDSON 35 M BIRMINGHAM AL 57:24 9:16 56:38 9:08
50. 64 BEN ASHBY 38 M BIRMINGHAM AL 57:33 9:17 56:55 9:11
51. 446 RICHARD KELLEY 38 M ATHENS AL 57:33 9:17 57:33 9:17
52. 283 JEFF FARMER 38 M TRUSSVILLE AL 58:10 9:23 57:59 9:22
53. 886 FRANK EGAN 36 M PELHAM AL 58:32 9:27 58:14 9:24
54. 277 BENJAMIN ETHERIEDGE 39 M WARRIOR AL 58:48 9:29 58:13 9:24
55. 660 ANDREW RICKLES 39 M PINSON AL 1:00:26 9:45 59:32 9:36
56. 71 JEFF BAHR 38 M HOOVER AL 1:00:29 9:46 59:51 9:40
57. 429 FRANK JONES 39 M JASPER AL 1:00:32 9:46 1:00:24 9:45
58. 701 JEREMY SHERER 36 M ONEONTA AL VULCAN'S BUTTOCKS 1:01:14 9:53 1:00:30 9:46
59. 1164 TODD HONEA 38 M WESTOVER AL 1:01:55 10:00 1:01:11 9:52
60. 750 WES TACKETT 38 M BIRMINGHAM AL 1:02:17 10:03 1:01:25 9:55
61. 766 PHILIP THOMPSON 35 M BIRMINGHAM AL 1:02:21 10:04 1:02:11 10:02
62. 170 ANDREW CHAMBERLAIN 38 M HELENA AL 1:03:19 10:13 1:02:15 10:03
63. 463 MATTHEW LACKEY 39 M BIRMINGHAM AL 1:03:32 10:15 1:02:58 10:10
64. 209 KEN COLVERT 37 M DORA AL 1:04:47 10:27 1:04:21 10:23
65. 874 ROGER BOAZ 37 M MC CALLA AL 1:06:06 10:40 1:05:25 10:33
66. 798 MATTHEW WALKER 35 M HOMEWOOD AL 1:07:26 10:53 1:07:26 10:53
67. 41 CHETHAN ACHARYA 38 M BIRMINGHAM AL 1:07:36 10:55 1:07:13 10:51
68. 808 KYLE WARRAM 36 M HELENA AL 1:07:49 10:57 1:06:53 10:48
69. 298 DEAN FRIERY 38 M WEST MONROE LA 1:07:52 10:57 1:07:20 10:52
70. 417 PAUL JERNIGAN 38 M HOOVER AL 1:08:28 11:03 1:08:28 11:03
71. 1119 JAN EWERS 38 M BIRMINGHAM AL 1:10:34 11:23 1:10:27 11:22
72. 290 EMANUEL FOSTER 36 M BESSEMER AL 1:12:01 11:37 1:11:32 11:33
73. 289 GABRIEL FLORES 39 M PELL CITY AL 1:18:21 12:39 1:17:03 12:26
74. 1024 JASON BOOI 35 M AUSTELL GA 1:20:34 13:00 1:20:01 12:55
---------------------------------------------------------------------------
MALE AGE GROUP: 40 - 44
---------------------------------------------------------------------------

Place Bib NAME Age Sex CITY/STATE TeamName GunTime GunPace TagTime TagPace
1. 567 CARY MORGAN 43 M BIRMINGHAM AL CADENCE RUN COACHING BLUE 39:27 6:22 39:21 6:21
2. 695 DANNY SHAFFIELD 42 M VESTAVIA HILLS AL 40:08 6:29 40:01 6:28
3. 421 TRAVIS JOHNSON 40 M BIRMINGHAM AL 41:32 6:42 41:32 6:42
4. 340 CARY GUFFEY 43 M BIRMINGHAM AL 42:13 6:49 42:06 6:48
5. 80 ROBERT BARBER 40 M HOOVER AL 42:16 6:49 42:10 6:48
6. 1167 TRISTAN TILLETTE 40 M BIRMINGHAM AL 43:42 7:03 43:11 6:58
7. 1107 KEVIN BOKUS 41 M BIRMINGHAM AL 43:46 7:04 43:37 7:03
8. 265 STEVEN DUKE 43 M HOMEWOOD AL 44:04 7:07 43:56 7:06
9. 972 SANFORD HOOPER 41 M BIRMINGHAM AL 44:13 7:08 43:37 7:02
10. 1162 ROGER WOOD 40 M BIRMINGHAM AL 45:01 7:16 44:46 7:14
11. 327 IZZY GOULD 41 M VESTAVIA HILLS AL 45:53 7:24 45:16 7:18
12. 399 MIKE HOUSE 42 M MONTEVALLO AL 46:35 7:31 46:25 7:30
13. 163 BARRY CASEY 43 M ALABASTER AL 46:37 7:32 46:26 7:30
14. 256 DREW DICKERSON 42 M NORTHPORT AL 46:38 7:32 46:27 7:30
15. 674 PAUL ROSS 43 M VESTAVIA AL 46:54 7:34 46:35 7:31
16. 488 ADAM LINDSEY 40 M BIRMINGHAM AL 47:26 7:39 47:20 7:38
17. 1067 STEVEN TROTTER 41 M HOOVER AL 47:49 7:43 47:33 7:41
18. 70 CHRISTOPHER BAGGETT 41 M BESSEMER AL 47:57 7:44 47:44 7:42
19. 747 DANNY SULLIVAN 42 M HELENA AL 48:11 7:47 47:38 7:41
20. 572 WILLIAM MORROW 44 M BIRMINGHAM AL 49:36 8:00 48:57 7:54
21. 900 MIKE HULEN 40 M ALABASTER AL 50:19 8:07 50:00 8:04
22. 134 SEAN BROWN 43 M IRONDALE AL 50:23 8:08 50:17 8:07
23. 617 LUIS PEDROSA 40 M BIRMINGHAM AL 50:50 8:12 50:50 8:12
24. 512 TIM MALEC 43 M HELENA AL 51:02 8:14 50:55 8:13
25. 93 PAUL BENTLEY 40 M BIRMINGHAM AL 51:07 8:15 50:45 8:12
26. 1154 DIAMOND VROCHER 40 M TRUSSVILLE AL 51:33 8:19 50:55 8:13
27. 341 SATYA GULLAPALLI 44 M HOOVER AL 52:06 8:25 51:46 8:21
28. 304 BROOKS GANT 42 M VESTAVIA HILLS AL 52:47 8:31 52:27 8:28
29. 569 JASON MORRIS 43 M VESTAVIA AL 53:57 8:42 53:14 8:36
30. 857 SCOTT WOOD 44 M MORRIS AL 54:23 8:47 53:42 8:40
31. 973 TOM HOOPER 44 M NASHVILLE TN 54:25 8:47 53:49 8:41
32. 1111 FREDDY RUBIO 44 M BIRMINGHAM AL 54:32 8:48 54:21 8:46
33. 774 KIRK TOOLE 43 M PELHAM AL 54:33 8:48 54:33 8:48
34. 793 MICHAEL VIZZINA 44 M BIRMINGHAM AL 54:39 8:49 54:39 8:49
35. 28 ALEX MORROW 43 M BIRMINGHAM AL 55:01 8:53 55:01 8:53
36. 172 CHRIS CHAPMAN 43 M HOMEWOOD AL 55:44 9:00 55:13 8:55
37. 1087 JOSHUA BEAN 41 M GARDENDALE AL 55:52 9:01 55:02 8:53
38. 348 BRYAN HANCOCK 43 M HOMEWOOD AL 55:52 9:01 55:36 8:58
39. 568 PHIL MORRIS 44 M COLUMBIANA AL 56:16 9:05 56:03 9:03
40. 506 CHRIS LYLES 44 M CALERA AL 56:28 9:07 56:13 9:04
41. 577 MIKE MOSES 41 M BIRMINGHAM AL 57:19 9:15 56:45 9:10
42. 540 ANDREW MCKINNON 41 M BIRMINGHAM AL 57:50 9:20 57:37 9:18
43. 989 SHAWN O'BRIEN 43 M BIRMINGHAM AL 58:34 9:27 57:33 9:17
44. 395 CHRIS HOOKS 40 M BIRMINGHAM AL 58:49 9:30 58:28 9:26
45. 94 BRIAN BERG 40 M BIRMINGHAM AL 59:14 9:34 58:23 9:25
46. 263 ALLAN DOWNS 44 M ALABASTER AL 59:43 9:38 58:55 9:31
47. 470 KEVIN LANE 42 M BIRMINGHAM AL 1:01:00 9:51 1:01:00 9:51
48. 985 PAUL MATHEWS 41 M BIRMINGHAM AL 1:01:12 9:53 1:00:09 9:43
49. 935 DAN THOMASSON 43 M MOUNTAIN BROOK AL 1:01:13 9:53 1:00:54 9:50
50. 333 KEVIN GRAY 40 M HOOVER AL 1:01:19 9:54 1:00:20 9:44
51. 784 WARREN VANDENTOP 43 M BIRMINGHAM AL 1:01:29 9:55 1:01:13 9:53
52. 158 DOUG CARDER 44 M VESTAVIA AL 1:02:17 10:03 1:01:45 9:58
53. 970 KENYA FRANKLIN 43 M BIRMINGHAM AL 1:02:25 10:04 1:01:29 9:55
54. 1143 STEPHEN BLANKENSHIP 42 M JASPER AL 1:02:45 10:08 1:01:54 10:00
55. 906 CHRIS LENOIR 41 M CALERA AL 1:03:10 10:12 1:02:31 10:05
56. 1009 LUIS VALVERDE 43 M BIRMINGHAM AL 1:03:12 10:12 1:02:48 10:08
57. 780 JASON TURNBOW 40 M BIRMINGHAM AL 1:03:55 10:19 1:03:20 10:13
58. 1013 MICHAEL WOLFE 43 M BIRMINGHAM AL 1:04:54 10:28 1:04:38 10:26
59. 309 DARRELL GIBSON 44 M HOMEWOOD AL 1:05:07 10:31 1:04:16 10:22
60. 905 MATTHEW LEDUKE 44 M GUIN AL 1:05:29 10:34 1:04:42 10:27
61. 1032 ALAN DEMARCO 42 M BESSEMER AL 1:06:05 10:40 1:05:26 10:34
62. JOHN GILBERT 43 M BIRMINGHAM AL 1:10:39 11:24 1:10:04 11:18
63. 837 TREY WHITT 44 M BIRMINGHAM AL 1:11:35 11:33 1:10:50 11:26
64. 1089 JIM COBLE 41 M HOOVER AL 1:11:38 11:34 1:10:51 11:26
65. 1126 PARKER DOBBINS 44 M BIRMINGHAM AL 1:13:11 11:49 1:10:43 11:25
66. 260 ANDREW DOGGRELL 43 M BIRMINGHAM AL 1:14:41 12:03 1:13:48 11:55
67. 543 JON MCWHORTER 40 M LEEDS AL 1:15:10 12:08 1:14:40 12:03
68. 459 ROBERT KRACKE 44 M VESTAVIA AL 1:15:14 12:08 1:14:14 11:59
69. 550 BILL MILLER 40 M CHELSEA AL 1:18:15 12:38 1:17:27 12:30
70. 186 BRETT CLEMONS 44 M GARDENDALE AL 1:19:58 12:54 1:19:40 12:51
71. 609 TODD PARRISH 43 M TRUSSVILLE AL 1:49:35 17:41 1:49:04 17:36
---------------------------------------------------------------------------
MALE AGE GROUP: 45 - 49
---------------------------------------------------------------------------

Place Bib NAME Age Sex CITY/STATE TeamName GunTime GunPace TagTime TagPace
1. 614 DAVID PEACOCK 46 M BIRMINGHAM AL THE TRAK SHAK 2 40:20 6:31 40:14 6:30
2. 1166 STEVE HICKS 45 M VESTAVIA HILLS AL 41:06 6:38 41:06 6:38
3. 534 JUSTIN MCDONALD 47 M BIRMINGHAM AL 41:46 6:45 41:39 6:43
4. 362 CHAD HATHORNE 47 M HOMEWOOD AL 41:58 6:46 41:51 6:45
5. 847 RUSSELL WILLIAMS 46 M BIRMINGHAM AL 42:09 6:48 42:03 6:47
6. 346 DAVE HALPERIN 47 M BIRMINGHAM AL 42:18 6:50 42:11 6:49
7. 249 DAVID DENARD 47 M TRUSSVILLE AL 42:50 6:55 42:41 6:54
8. 245 RON DEAN 46 M BIRMINGHAM AL 42:56 6:56 42:49 6:55
9. 1122 JAY MCDIARMID 48 M HOOVER AL 44:11 7:08 43:59 7:06
10. 1030 RENATO CORBETTA 46 M BIRMINGHAM AL 44:18 7:09 43:51 7:05
11. 159 CHRISTOPHER CAREY 45 M BIRMINGHAM AL 45:31 7:21 45:21 7:19
12. 1001 ROBERT SCHWYN 49 M OXFORD AL 45:35 7:22 45:35 7:22
13. 358 JIMMY HARRISON 49 M BIRMINGHAM AL 46:36 7:31 46:29 7:30
14. 647 TODD PRINCE 45 M HOOVER AL 46:48 7:33 46:41 7:32
15. 387 CHRIS HOGGLE 47 M COVINGTON LA 48:17 7:48 48:11 7:47
16. 580 DERRICK MURPHY 49 M VESTAVIA HILLS AL 48:37 7:51 48:05 7:46
17. 250 TAYLOR DENARD 45 M TRUSSVILLE AL 48:47 7:53 48:47 7:53
18. 1064 JASON SMITH 46 M BIRMINGHAM AL 48:55 7:54 48:43 7:52
19. 994 WADE PYRON 47 M BIRMINGHAM AL 49:51 8:03 49:45 8:02
20. 1051 ANTHONY MARINO 46 M BIRMINGHAM AL 49:51 8:03 49:23 7:58
21. 218 ROGER CORRIN 46 M BIRMINGHAM AL 50:14 8:07 50:14 8:07
22. 103 DYLAN BLACK 47 M BIRMINGHAM AL 50:33 8:10 50:33 8:10
23. 372 PATRICK HICKERSON 49 M BIRMINGHAM AL 50:45 8:12 50:32 8:09
24. 127 PATRICK BROCK 48 M CULLMAN AL 50:59 8:14 50:51 8:13
25. 640 PAUL PORTWOOD 47 M SELMA AL 51:04 8:15 50:50 8:12
26. 777 JAMIE TRIMBLE 47 M VESTAVIA AL 51:10 8:16 50:35 8:10
27. 224 ALLEN CRAWFORD 49 M SPRINGVILLE AL 51:57 8:23 51:57 8:23
28. 810 DAVID WASHINGTON 49 M MERIDIANVILLE AL 51:58 8:23 51:43 8:21
29. 174 ANDREW CHEELY 46 M SHERMAN TX 54:18 8:46 53:30 8:38
30. 1085 BARRY HAMRIC 45 M BIRMINGHAM AL 54:52 8:51 54:33 8:48
31. 503 ANDREW LOVE 48 M VESTAVIA HILLS AL 55:23 8:56 55:23 8:56
32. 1120 JACKSON MCCARTHY 46 M BIRMINGHAM AL 55:29 8:57 55:29 8:57
33. 1128 TERRY SR EDWARDS 47 M ODENVILLE AL 56:00 9:02 55:53 9:01
34. 207 CLINTON COLMENARES 47 M VESTAVIA HILLS AL 56:14 9:05 55:37 8:59
35. 253 ADAM DESCHAMPS 45 M MOODY AL 57:43 9:19 56:35 9:08
36. 892 DOUG GREEN 46 M BIRMINGHAM AL 58:14 9:24 57:13 9:14
37. 1147 KNOX WILLIAMS 49 M BIRMINGHAM AL 59:47 9:39 59:30 9:36
38. 208 CHRIS COLPACK 49 M BIRMINGHAM AL 59:50 9:39 59:12 9:33
39. 1056 PHILIP OREILLY 47 M BIRMINGHAM AL 59:55 9:40 58:58 9:31
40. 371 GARRET HERRINGDON 49 M MAYLENE AL 1:00:13 9:43 59:19 9:35
41. 391 MICHAEL HOLMES 45 M CHELSEA AL 1:00:17 9:44 59:47 9:39
42. 547 JAMES MERRELL 48 M BIRMINGHAM AL 1:00:27 9:45 59:23 9:35
43. 485 TIM LEMSKY 46 M BIRMINGHAM AL 1:01:52 9:59 1:01:52 9:59
44. 1005 KYLE SMITH 46 M CLANTON AL 1:02:06 10:01 1:01:08 9:52
45. 944 MILES WRIGHT 48 M HOMEWOOD AL 1:03:16 10:13 1:02:44 10:07
46. 546 ZULFI MERCHANT 49 M HELENA AL 1:03:20 10:13 1:02:37 10:06
47. 464 NICHOLAS LAFOUNTAIN 45 M SAINT CLOUD FL 1:04:17 10:23 1:03:34 10:16
48. 881 HENRY CHRISTIAN 48 M CHELSEA AL 1:05:25 10:34 1:05:07 10:31
49. 783 CLARK UNDERBAKKE 45 M BIRMINGHAM AL 1:06:50 10:47 1:06:01 10:39
50. 656 JOE REISS 49 M HOOVER AL 1:07:24 10:53 1:06:43 10:46
51. 302 JEFFREY FUQUA 48 M BIRMINGHAM AL 1:08:01 10:59 1:08:01 10:59
52. 1062 KEITH RICHARDSON 48 M BIRMIBIRMINGHAMNGHAM AL 1:08:02 10:59 1:07:25 10:53
53. 529 WILLIAM MCCALLEY 47 M BIRMINGHAM AL 1:08:51 11:07 1:08:20 11:02
54. 526 STUART MCATEE 49 M BIRMINGHAM AL 1:09:15 11:11 1:08:17 11:01
55. 921 DEREK PIERCE 48 M BIRMINGHAM AL 1:12:30 11:42 1:11:29 11:32
56. 536 ROBERT MCELROY 45 M BIRMINGHAM AL 1:24:53 13:42 1:24:24 13:37
57. 634 RICHARD POFF 46 M PELHAM AL 1:32:30 14:56 1:32:03 14:51
58. 193 DAVID CLOE 48 M ARLINGTONR VA 1:32:59 15:00 1:31:54 14:50
59. 1019 CJ ALVERSON 49 M CANTON GA 1:38:00 15:49 1:37:05 15:40
---------------------------------------------------------------------------
MALE AGE GROUP: 50 - 54
---------------------------------------------------------------------------

Place Bib NAME Age Sex CITY/STATE TeamName GunTime GunPace TagTime TagPace
1. 687 MIKE SCHOR 52 M BIRMINGHAMA AL 40:53 6:36 40:46 6:35
2. 481 TIM LEE 53 M CULLMAN AL 43:01 6:57 42:55 6:56
3. 662 KEVIN ROBERSON 54 M MOUNT OLIVE AL 43:44 7:04 43:37 7:03
4. 1117 RETIRED HOOVER 50 M BIRMINGHAM AL 43:49 7:04 43:40 7:03
5. 525 SIDNEY MAYS 54 M VESTAVIA AL 44:32 7:11 44:25 7:10
6. 633 DAVID PLANTE 53 M BIRMINGHAM AL 45:06 7:17 45:06 7:17
7. 220 JAMES COUNSELL 53 M PRATTVILLE AL 45:13 7:18 45:05 7:17
8. 487 DON LEOPARD 50 M SPRINGVILLE AL 45:33 7:21 45:17 7:19
9. 961 SCOTT CONAWAY 53 M ODENVILLE AL 46:44 7:33 46:37 7:32
10. 1097 ROB CRABTREE 52 M BIRMINGHAM AL 46:45 7:33 46:39 7:32
11. 301 ROBERT FUNK 52 M PELL CITY AL 47:33 7:41 46:59 7:35
12. 860 RAY WORKMAN 52 M BIRMINGHAM AL 48:00 7:45 47:54 7:44
13. 137 DAVID BRYANT 50 M TRUSSVILLE AL 48:03 7:45 47:56 7:44
14. 1021 FRANK BARRY 52 M BIRMINGHAM AL 49:04 7:55 48:48 7:53
15. 845 DAVID WILLIAMS 52 M PELHAM AL 49:07 7:56 49:07 7:56
16. 530 DAVID MCCOLLUM 54 M HOOVER AL 49:26 7:59 49:20 7:58
17. 1049 DAVID LOPER 51 M BIRMINGHAM AL 50:44 8:11 50:22 8:08
18. 1040 JOSH HANNUM 54 M BIRMINGHAM AL 50:57 8:13 50:48 8:12
19. 164 OCTAVIO CAVIEDES 53 M VESTAVIA HILLS AL 51:13 8:16 51:02 8:14
20. 1081 CHRISTIAN PRONATH 52 M BIRMINGHAM AL 51:18 8:17 50:44 8:11
21. 1151 JIM GORRIE 53 M BIRMINGHAM AL 51:49 8:22 51:24 8:18
22. 305 MICHAEL GEER 50 M BHAM AL 52:49 8:31 52:36 8:29
23. 1059 KEN PHILLIPS 54 M BIRMINGHAM AL 52:53 8:32 52:53 8:32
24. 584 BRITTON NEAL 50 M BIRMINGHAM AL 53:05 8:34 52:57 8:33
25. 320 GERALD GILLESPY 50 M BIRMINGHAM AL 53:06 8:34 52:58 8:33
26. 693 TRAVIS SELF 51 M BIRMINGHAM AL 53:18 8:36 53:03 8:34
27. 254 BRAD DEUEL 50 M HOOVER AL 54:22 8:47 54:22 8:47
28. 963 JAMIE COWIN 50 M BIRMINGHAM AL 54:26 8:47 54:18 8:46
29. 871 ROBERT APPELBAUM 52 M BIRMINGHAM AL 54:43 8:50 54:31 8:48
30. 375 JOHN HIGH 51 M 55:54 9:01 55:36 8:58
31. 141 JEFF BURBANK 54 M MAYLENE AL 56:09 9:04 55:42 9:00
32. 82 DAVID BARRY 54 M BIRMINGHAM AL 56:13 9:04 55:36 8:58
33. 228 MARK CRISWELL 50 M WARRIOR AL 56:30 9:07 56:19 9:05
34. 363 JOHNE HAWKINS 51 M BIRMINGHAM AL 57:07 9:13 57:07 9:13
35. 967 JORGE DE LA TORRE 51 M BIRMINGHAM AL 57:53 9:21 57:13 9:14
36. 378 NICK HILL 51 M PINSON AL 58:07 9:23 57:21 9:15
37. 1016 RONNIE YANCEY 54 M BIRMINGHAM AL 58:25 9:26 57:46 9:20
38. 513 ANDREW MARLIN 50 M BIRMINGHAM AL 58:26 9:26 57:40 9:18
39. 804 NEIL WALTON 52 M HOOVER AL 58:43 9:29 58:43 9:29
40. 339 MIKE GRIZZELL 53 M JASPER AL 59:06 9:32 58:07 9:23
41. 823 LANCE WEEKS 51 M MOUNT OLIVE AL 1:00:01 9:41 59:09 9:33
42. 146 MOODY BURNS 54 M NORTHPORT AL 1:00:11 9:43 59:56 9:40
43. 386 PAUL HOFFMAN 51 M BIRMINGHAM AL 1:00:23 9:45 59:39 9:38
44. 552 SCOTT MISSILDINE 53 M DECATUR AL 1:00:46 9:49 1:00:20 9:44
45. 370 RAYMOND HERB 54 M CHELSEA AL 1:00:58 9:50 1:00:58 9:50
46. 899 MICHAEL HOLT 51 M BIRMINGHAM AL 1:01:41 9:57 1:01:28 9:55
47. 368 VICTOR HENKEN 53 M HOMEWOOD AL 1:01:44 9:58 1:01:18 9:54
48. 1168 RANDY ALDRICH 51 M TRUSSVILLE AL 1:02:37 10:06 1:02:10 10:02
49. 306 SCOTT GEORGE 52 M BIRMINGHAM AL 1:03:09 10:12 1:03:09 10:12
50. 138 DOUG BRYSON 54 M BIRMINGHAM AL 1:03:39 10:16 1:03:30 10:15
51. 732 VASTINE STABLER 53 M BIRMINGHAM AL 1:04:46 10:27 1:04:20 10:23
52. 1121 JEFF PARMER 51 M MOUNTAIN BROOK AL 1:05:26 10:34 1:04:55 10:29
53. 1152 RANDALL HUDSON 51 M GARDENDALE AL 1:05:55 10:38 1:05:55 10:38
54. 59 GEORGE ANDERSON 51 M BIRMINGHAM AL 1:12:42 11:44 1:12:08 11:39
55. 438 DAVID KAHN 53 M BIRMINGHAM AL CADENCE RUN COACHING BLUE 1:14:08 11:58 1:14:08 11:58
56. 406 DAVE HUGHES 51 M BESSEMER AL 1:17:23 12:29 1:16:20 12:19
57. 713 DANIEL SMART 54 M INDIAN SPRINGS AL 1:20:50 13:03 1:19:57 12:54
58. 443 HERB KEEFER 53 M HUEYTOWN AL 1:27:01 14:03 1:26:28 13:57
---------------------------------------------------------------------------
MALE AGE GROUP: 55 - 59
---------------------------------------------------------------------------

Place Bib NAME Age Sex CITY/STATE TeamName GunTime GunPace TagTime TagPace
1. 1023 STAN BLANTON 57 M BIRMINGHAM AL 45:16 7:18 44:51 7:14
2. 865 GARY YORK 56 M HOOVER AL 45:19 7:19 45:19 7:19
3. 964 MASON CROSS 56 M MOUNTAIN BROOK AL 47:45 7:42 47:38 7:41
4. 636 JIM POH 57 M BIRMINGHAM AL 48:15 7:47 48:08 7:46
5. 1018 JEFF AIKEN 58 M ALABASTER AL 49:42 8:01 49:42 8:01
6. 76 MICHAEL BALLARD 56 M BIRMINGHAM AL 50:40 8:11 50:40 8:11
7. 79 RAMOND BANKS 58 M BIRMINGHAM AL 51:23 8:18 51:10 8:16
8. 686 CRAIG SATTERFIELD 55 M BIRMINGHAM AL 51:36 8:20 51:36 8:20
9. 236 ANTHONY DANTONIO 55 M DECATUR AL 51:59 8:23 51:59 8:23
10. 1039 NORIYUKI HANASHIRO 57 M BIRMINGHAM AL 52:16 8:26 51:58 8:23
11. 392 MIKE HOOD 57 M SPRINGVILLE AL 52:53 8:32 52:53 8:32
12. 763 STEVEN THOMPSON 55 M MOUNTAIN BROOK AL 53:18 8:36 52:35 8:29
13. 111 EKKEHARD BONATZ 59 M BIRMINGHAM AL 53:23 8:37 53:10 8:35
14. 168 BRYAN CHACE 59 M BIRMINGHAM AL 53:40 8:40 53:30 8:38
15. 502 THOMAS LOVE 59 M VESTAVIA HILLS AL 53:43 8:40 53:28 8:38
16. 448 THOMAS KENDRICK 55 M HOMEWOOD AL 54:37 8:49 54:28 8:47
17. 870 MARK APPELBAUM 56 M EUGENE OR 54:42 8:50 54:30 8:48
18. 932 MIKE SHEPHERD 59 M HOOVER AL 54:42 8:50 54:31 8:48
19. 586 VAN NELSON 57 M GUIN AL 57:13 9:14 56:26 9:07
20. 666 STEVE RODGERS 55 M MERIDIANVILLE AL 57:15 9:14 57:15 9:14
21. 933 BUDDY SMITH 56 M BIRMINGHAM AL 59:07 9:33 58:38 9:28
22. 1109 DOUG ALLEN 58 M VESTAVIA HILLS AL 59:19 9:34 59:19 9:34
23. 1116 WILLIAM CROWSON 55 M BIRMINGHAM AL 59:20 9:35 58:44 9:29
24. 105 KEN BLACKMON 55 M BIRMINGHAM AL 59:22 9:35 59:10 9:33
25. 1065 STEVE SMITH 57 M ASHLAND AL 1:00:02 9:41 59:27 9:36
26. 711 MIKE SLOANE 59 M MOUNTAIN BROOK AL 1:00:40 9:48 59:33 9:37
27. 708 ROBERT SIMS 58 M HOMEWOOD AL 1:01:10 9:52 1:00:20 9:44
28. 664 GORDIE ROBINSON 59 M BIRMINGHAM AL 1:01:28 9:55 1:00:32 9:46
29. 490 DAVID LINK 55 M BIRMINGHAM AL 1:01:29 9:55 1:00:18 9:44
30. 330 GREG GRAHAM 57 M HOMEWOOD AL 1:03:33 10:15 1:02:47 10:08
31. 974 BILL HOST 58 M IRONDALE AL 1:03:33 10:15 1:02:46 10:08
32. 1124 RICHARD BOTTSFORD 59 M BIRMINGHAM AL 1:05:54 10:38 1:05:54 10:38
33. 1096 THOMAS HALL 55 M BIRMINGHAM AL 1:05:59 10:39 1:04:57 10:29
34. 428 GORMAN JONES 56 M BIRMINGHAM AL 1:06:50 10:47 1:06:02 10:39
35. 824 LARRY WELLS 56 M BIRMINGHAM AL 1:07:13 10:51 1:06:05 10:40
36. 802 DON WALSTON 56 M BIRMINGHAM AL 1:07:53 10:57 1:06:55 10:48
37. 472 RICHARD LANGSTON 58 M PLEASANT GROVE AL 1:08:38 11:05 1:07:24 10:53
38. 107 LARRY BOACKLE 57 M WARRIOR AL 1:09:52 11:17 1:08:55 11:07
39. 605 RANDALL PALMORE 59 M PINSON AL 1:12:41 11:44 1:12:08 11:38
40. 237 JIM DARGAN 58 M VINCENT AL 1:13:15 11:49 1:12:03 11:38
41. 84 JIM BASINGER 59 M BIRMINGHAM AL 1:17:05 12:26 1:16:30 12:21
42. 691 CHARLIE SEAGLE 55 M VESTAVIA AL 1:21:31 13:09 1:20:25 12:59
43. 861 XING WU 56 M HOOVER AL 1:49:38 17:41 1:48:23 17:29
---------------------------------------------------------------------------
MALE AGE GROUP: 60 - 64
---------------------------------------------------------------------------

Place Bib NAME Age Sex CITY/STATE TeamName GunTime GunPace TagTime TagPace
1. 129 HANK BROWN 62 M VESTAVIA HILLS AL 43:30 7:01 43:22 7:00
2. 353 KENNETH HARKLESS 64 M BESSEMER AL 47:44 7:42 47:36 7:41
3. 809 TOM WARREN 62 M HELENA AL 47:50 7:43 47:39 7:42
4. 1112 DEAN LEADER 64 M VESTAVIA HILLS AL 51:04 8:15 50:44 8:11
5. 390 RONNY HOLLAWAY 62 M BIRMINGHAM AL 54:51 8:51 54:21 8:46
6. 352 ALAN HARGRAVE 61 M HOOVER AL 55:17 8:55 55:17 8:55
7. 1115 KENNY FORTSON 60 M BIRMINGHAM AL 55:49 9:01 55:18 8:56
8. 1155 RICK GRAMMER 60 M HOOVER AL 56:27 9:07 55:46 9:00
9. 130 CHARLIE BROWN 60 M BIRMINGHAM AL 58:45 9:29 58:32 9:27
10. 805 SAM WARBINGTON 60 M BIRMINGHAM AL 1:00:05 9:42 59:56 9:40
11. 128 RICHARD BROOME 61 M BIRMINGHAM AL 1:00:21 9:44 59:43 9:38
12. 724 GENE SNOW 60 M ALPHARETTA GA 1:00:29 9:46 1:00:00 9:41
13. 854 STEVE WISEMAN 60 M BIRMINGAHM AL 1:01:04 9:51 1:01:04 9:51
14. 493 CHARLES LOCKHART 62 M VESTAVIA HILLS AL 1:01:24 9:55 1:00:50 9:49
15. 782 LARRY TYSON 62 M BIRMINGHAM AL COUNSELORS ON THE RUN 1:06:01 10:39 1:05:32 10:35
16. 775 CHRIS TOTH 60 M PELHAM AL 1:06:26 10:43 1:05:42 10:36
17. 47 ED ALDERSON 63 M BIRMINGHAM AL 1:08:31 11:04 1:08:00 10:58
18. 715 CHRIS SMITH 60 M FULTONDALE AL 1:10:00 11:18 1:09:38 11:14
19. 486 ROBERT LENOIR 64 M PINSON AL 1:12:20 11:40 1:11:41 11:34
20. 149 JIM BYRD 60 M BIRMINGHAM AL 1:15:52 12:15 1:14:48 12:04
21. 815 JEFF WAYMAN 63 M EAST TEMPLETON MA 1:15:55 12:15 1:14:49 12:04
22. 162 MARK CARTER 62 M MOUNTAIN BROOK AL 1:16:44 12:23 1:16:44 12:23
23. 96 MAX BERUEFFY 63 M BIRMINGHAM AL 1:17:48 12:33 1:16:48 12:24
24. 843 RANDY WILHITE 62 M DORA AL 1:24:48 13:41 1:24:48 13:41
---------------------------------------------------------------------------
MALE AGE GROUP: 65 - 69
---------------------------------------------------------------------------

Place Bib NAME Age Sex CITY/STATE TeamName GunTime GunPace TagTime TagPace
1. 1084 JEFF MASSIEN 65 M BIRMINGHAM AL 53:22 8:37 53:16 8:36
2. 596 PAT O'BRIEN 69 M ALABASTER AL 1:01:58 10:00 1:01:03 9:51
3. 704 RONALD SHINN 66 M BIRMINGHAM AL 1:01:59 10:00 1:01:59 10:00
4. 733 ALLAN STAMM 66 M BIRMINGHAM AL 1:05:08 10:31 1:04:27 10:24
5. 413 JAMES JACKSON 68 M VESTAVIA AL 1:10:28 11:22 1:09:25 11:12
6. 889 DINKS GASKIN 65 M BIRMINGHAM AL 1:12:24 11:41 1:11:26 11:32
7. 73 LES BAILEY 65 M BIRMINGHAM AL 1:21:38 13:10 1:20:51 13:03
8. 56 GERALD ANDERSON 68 M VESTAVIA HILLS AL 1:21:50 13:12 1:20:44 13:02
9. 143 JEROME BURKES 65 M BIRMINGHAM AL 1:24:45 13:41 1:24:17 13:36
---------------------------------------------------------------------------
MALE AGE GROUP: 70 - 98
---------------------------------------------------------------------------

Place Bib NAME Age Sex CITY/STATE TeamName GunTime GunPace TagTime TagPace
1. 367 TED HEGENBARTH 74 M GADSON AL 1:01:48 9:59 1:01:26 9:55
2. 342 SQUIRE GWIN 71 M BIRMINGHAM AL 1:27:20 14:06 1:26:18 13:56
3. 192 RAFE CLOE 80 M VESTAVIA AL 1:32:59 15:00 1:31:53 14:50
---------------------------------------------------------------------------
MALE no age given AGE GROUP: 99 - 99 (** NONE **)
---------------------------------------------------------------------------